sensor_id;sensor_type;location;lat;lon;timestamp;pressure;altitude;pressure_sealevel;temperature;humidity
8075;BME280;4080;42.676;23.372;2022-08-04T00:01:39;95262.16;;;20.75;100.00
8075;BME280;4080;42.676;23.372;2022-08-04T00:04:12;95285.34;;;21.01;100.00
8075;BME280;4080;42.676;23.372;2022-08-04T00:06:50;95286.13;;;21.01;100.00
8075;BME280;4080;42.676;23.372;2022-08-04T00:09:27;95291.81;;;21.00;100.00
8075;BME280;4080;42.676;23.372;2022-08-04T00:11:57;95275.00;;;20.91;100.00
8075;BME280;4080;42.676;23.372;2022-08-04T00:14:29;95289.16;;;20.70;100.00
8075;BME280;4080;42.676;23.372;2022-08-04T00:16:58;95286.38;;;20.29;100.00
8075;BME280;4080;42.676;23.372;2022-08-04T00:19:32;95283.50;;;19.96;100.00
8075;BME280;4080;42.676;23.372;2022-08-04T00:22:03;95276.50;;;19.65;100.00
8075;BME280;4080;42.676;23.372;2022-08-04T00:24:34;95260.44;;;19.39;100.00
8075;BME280;4080;42.676;23.372;2022-08-04T00:27:03;95271.13;;;19.57;100.00
8075;BME280;4080;42.676;23.372;2022-08-04T00:29:30;95139.22;;;19.09;100.00
8075;BME280;4080;42.676;23.372;2022-08-04T00:31:58;95233.09;;;19.89;100.00
8075;BME280;4080;42.676;23.372;2022-08-04T00:34:26;95280.88;;;20.25;100.00
8075;BME280;4080;42.676;23.372;2022-08-04T00:36:55;95280.91;;;20.55;100.00
8075;BME280;4080;42.676;23.372;2022-08-04T00:39:22;95273.47;;;20.60;100.00
8075;BME280;4080;42.676;23.372;2022-08-04T00:42:04;95293.19;;;20.85;100.00
8075;BME280;4080;42.676;23.372;2022-08-04T00:44:44;95293.84;;;20.82;100.00
8075;BME280;4080;42.676;23.372;2022-08-04T00:47:34;95293.97;;;20.86;100.00
8075;BME280;4080;42.676;23.372;2022-08-04T00:50:08;95289.84;;;20.88;100.00
8075;BME280;4080;42.676;23.372;2022-08-04T00:52:48;95292.09;;;20.86;100.00
8075;BME280;4080;42.676;23.372;2022-08-04T00:55:56;95292.25;;;20.81;100.00
8075;BME280;4080;42.676;23.372;2022-08-04T00:58:42;95293.22;;;20.76;100.00
8075;BME280;4080;42.676;23.372;2022-08-04T01:01:22;95303.13;;;20.85;100.00
8075;BME280;4080;42.676;23.372;2022-08-04T01:04:02;95281.59;;;20.72;100.00
8075;BME280;4080;42.676;23.372;2022-08-04T01:06:35;95291.19;;;20.73;100.00
8075;BME280;4080;42.676;23.372;2022-08-04T01:12:16;95306.28;;;20.87;100.00
8075;BME280;4080;42.676;23.372;2022-08-04T01:14:59;95317.00;;;20.87;100.00
8075;BME280;4080;42.676;23.372;2022-08-04T01:17:39;95169.50;;;19.95;100.00
8075;BME280;4080;42.676;23.372;2022-08-04T01:20:10;95312.28;;;20.84;100.00
8075;BME280;4080;42.676;23.372;2022-08-04T01:23:05;95295.16;;;20.97;100.00
8075;BME280;4080;42.676;23.372;2022-08-04T01:31:33;95298.47;;;21.77;100.00
8075;BME280;4080;42.676;23.372;2022-08-04T01:34:04;95298.59;;;21.93;100.00
8075;BME280;4080;42.676;23.372;2022-08-04T01:36:33;95299.78;;;22.04;100.00
8075;BME280;4080;42.676;23.372;2022-08-04T01:39:02;95303.88;;;22.01;100.00
8075;BME280;4080;42.676;23.372;2022-08-04T01:41:51;95294.25;;;22.00;100.00
8075;BME280;4080;42.676;23.372;2022-08-04T01:44:18;95309.19;;;22.10;100.00
8075;BME280;4080;42.676;23.372;2022-08-04T01:46:49;95314.69;;;22.14;100.00
8075;BME280;4080;42.676;23.372;2022-08-04T01:49:17;95313.94;;;21.92;100.00
8075;BME280;4080;42.676;23.372;2022-08-04T01:51:48;95309.91;;;21.86;100.00
8075;BME280;4080;42.676;23.372;2022-08-04T01:54:17;95298.25;;;21.82;100.00
8075;BME280;4080;42.676;23.372;2022-08-04T01:56:46;95259.91;;;21.61;100.00
8075;BME280;4080;42.676;23.372;2022-08-04T01:59:17;95232.53;;;21.34;100.00
8075;BME280;4080;42.676;23.372;2022-08-04T02:01:44;95310.81;;;21.57;100.00
8075;BME280;4080;42.676;23.372;2022-08-04T02:04:14;95303.53;;;21.16;100.00
8075;BME280;4080;42.676;23.372;2022-08-04T02:06:49;95282.97;;;20.78;100.00
8075;BME280;4080;42.676;23.372;2022-08-04T02:09:22;95301.56;;;20.84;100.00
8075;BME280;4080;42.676;23.372;2022-08-04T02:12:01;95301.81;;;20.91;100.00
8075;BME280;4080;42.676;23.372;2022-08-04T02:14:31;95299.66;;;21.05;100.00
8075;BME280;4080;42.676;23.372;2022-08-04T02:17:10;95300.09;;;21.36;100.00
8075;BME280;4080;42.676;23.372;2022-08-04T02:19:50;95297.06;;;21.59;100.00
8075;BME280;4080;42.676;23.372;2022-08-04T02:22:22;95300.38;;;21.77;100.00
8075;BME280;4080;42.676;23.372;2022-08-04T02:24:57;95251.53;;;21.62;100.00
8075;BME280;4080;42.676;23.372;2022-08-04T02:27:32;95296.25;;;21.91;100.00
8075;BME280;4080;42.676;23.372;2022-08-04T02:30:05;95285.44;;;21.67;100.00
8075;BME280;4080;42.676;23.372;2022-08-04T02:32:35;95309.88;;;21.74;100.00
8075;BME280;4080;42.676;23.372;2022-08-04T02:35:08;95302.53;;;21.62;100.00
8075;BME280;4080;42.676;23.372;2022-08-04T02:37:41;95305.66;;;21.31;100.00
8075;BME280;4080;42.676;23.372;2022-08-04T02:40:11;95265.16;;;20.83;100.00
8075;BME280;4080;42.676;23.372;2022-08-04T02:42:38;95296.00;;;20.89;100.00
8075;BME280;4080;42.676;23.372;2022-08-04T02:45:06;95298.16;;;20.95;100.00
8075;BME280;4080;42.676;23.372;2022-08-04T02:47:33;95305.34;;;20.83;100.00
8075;BME280;4080;42.676;23.372;2022-08-04T02:50:01;95307.72;;;20.55;100.00
8075;BME280;4080;42.676;23.372;2022-08-04T02:52:30;95307.94;;;20.32;100.00
8075;BME280;4080;42.676;23.372;2022-08-04T02:54:59;95287.72;;;20.05;100.00
8075;BME280;4080;42.676;23.372;2022-08-04T02:57:29;95292.16;;;20.01;100.00
8075;BME280;4080;42.676;23.372;2022-08-04T03:00:07;95302.72;;;19.98;100.00
8075;BME280;4080;42.676;23.372;2022-08-04T03:02:49;95295.13;;;20.00;100.00
8075;BME280;4080;42.676;23.372;2022-08-04T03:05:25;95303.72;;;20.23;100.00
8075;BME280;4080;42.676;23.372;2022-08-04T03:11:09;95304.72;;;20.56;100.00
8075;BME280;4080;42.676;23.372;2022-08-04T03:23:04;95290.16;;;20.19;100.00
8075;BME280;4080;42.676;23.372;2022-08-04T03:26:00;95298.91;;;20.54;100.00
8075;BME280;4080;42.676;23.372;2022-08-04T03:29:00;95298.78;;;20.71;100.00
8075;BME280;4080;42.676;23.372;2022-08-04T03:31:55;95305.03;;;21.05;100.00
8075;BME280;4080;42.676;23.372;2022-08-04T03:34:36;95310.19;;;21.10;100.00
8075;BME280;4080;42.676;23.372;2022-08-04T03:40:44;95258.13;;;21.11;100.00
8075;BME280;4080;42.676;23.372;2022-08-04T03:43:36;95308.16;;;21.69;100.00
8075;BME280;4080;42.676;23.372;2022-08-04T03:49:49;95315.94;;;21.00;100.00
8075;BME280;4080;42.676;23.372;2022-08-04T03:52:42;95309.16;;;20.52;100.00
8075;BME280;4080;42.676;23.372;2022-08-04T03:56:05;95306.13;;;20.07;100.00
8075;BME280;4080;42.676;23.372;2022-08-04T03:58:54;95306.22;;;19.72;100.00
8075;BME280;4080;42.676;23.372;2022-08-04T04:04:31;95298.69;;;19.31;100.00
8075;BME280;4080;42.676;23.372;2022-08-04T04:07:22;95302.00;;;19.19;100.00
8075;BME280;4080;42.676;23.372;2022-08-04T04:10:06;95296.00;;;19.22;100.00
8075;BME280;4080;42.676;23.372;2022-08-04T04:12:55;95299.16;;;19.42;100.00
8075;BME280;4080;42.676;23.372;2022-08-04T04:15:39;95303.72;;;19.41;100.00
8075;BME280;4080;42.676;23.372;2022-08-04T04:18:23;95307.97;;;19.42;100.00
8075;BME280;4080;42.676;23.372;2022-08-04T04:24:10;95321.81;;;19.53;100.00
8075;BME280;4080;42.676;23.372;2022-08-04T04:26:54;95287.66;;;19.59;100.00
8075;BME280;4080;42.676;23.372;2022-08-04T04:29:51;95290.44;;;19.88;100.00
8075;BME280;4080;42.676;23.372;2022-08-04T04:35:29;95324.94;;;20.36;100.00
8075;BME280;4080;42.676;23.372;2022-08-04T04:38:19;95318.34;;;20.34;100.00
8075;BME280;4080;42.676;23.372;2022-08-04T04:40:56;95320.22;;;20.33;100.00
8075;BME280;4080;42.676;23.372;2022-08-04T04:46:37;95330.88;;;20.59;100.00
8075;BME280;4080;42.676;23.372;2022-08-04T04:49:16;95321.75;;;20.52;100.00
8075;BME280;4080;42.676;23.372;2022-08-04T04:51:48;95200.84;;;19.85;100.00
8075;BME280;4080;42.676;23.372;2022-08-04T04:54:24;95321.25;;;20.88;100.00
8075;BME280;4080;42.676;23.372;2022-08-04T04:57:09;95329.00;;;21.31;100.00
8075;BME280;4080;42.676;23.372;2022-08-04T04:59:43;95329.50;;;21.66;100.00
8075;BME280;4080;42.676;23.372;2022-08-04T05:05:56;95325.22;;;22.31;100.00
8075;BME280;4080;42.676;23.372;2022-08-04T05:08:39;95333.31;;;22.43;100.00
8075;BME280;4080;42.676;23.372;2022-08-04T05:11:51;95340.97;;;22.66;100.00
8075;BME280;4080;42.676;23.372;2022-08-04T05:14:23;95321.31;;;22.65;100.00
8075;BME280;4080;42.676;23.372;2022-08-04T05:16:55;95349.47;;;22.92;100.00
8075;BME280;4080;42.676;23.372;2022-08-04T05:19:32;95348.81;;;23.07;100.00
8075;BME280;4080;42.676;23.372;2022-08-04T05:22:02;95339.56;;;23.20;100.00
8075;BME280;4080;42.676;23.372;2022-08-04T05:24:34;95340.94;;;23.54;100.00
8075;BME280;4080;42.676;23.372;2022-08-04T05:27:07;95353.38;;;23.71;100.00
8075;BME280;4080;42.676;23.372;2022-08-04T05:29:43;95286.84;;;23.32;100.00
8075;BME280;4080;42.676;23.372;2022-08-04T05:32:13;95356.22;;;23.63;100.00
8075;BME280;4080;42.676;23.372;2022-08-04T05:34:44;95353.72;;;23.98;100.00
8075;BME280;4080;42.676;23.372;2022-08-04T05:37:16;95360.75;;;24.30;100.00
8075;BME280;4080;42.676;23.372;2022-08-04T05:39:48;95348.06;;;24.46;100.00
8075;BME280;4080;42.676;23.372;2022-08-04T05:42:19;95316.13;;;24.33;100.00
8075;BME280;4080;42.676;23.372;2022-08-04T05:44:47;95359.81;;;24.70;100.00
8075;BME280;4080;42.676;23.372;2022-08-04T05:47:14;95355.63;;;24.57;100.00
8075;BME280;4080;42.676;23.372;2022-08-04T05:49:43;95354.94;;;24.60;100.00
8075;BME280;4080;42.676;23.372;2022-08-04T05:52:11;95353.78;;;24.76;100.00
8075;BME280;4080;42.676;23.372;2022-08-04T05:54:41;95351.09;;;24.92;100.00
8075;BME280;4080;42.676;23.372;2022-08-04T05:57:08;95358.56;;;25.15;100.00
8075;BME280;4080;42.676;23.372;2022-08-04T05:59:37;95329.84;;;25.06;100.00
8075;BME280;4080;42.676;23.372;2022-08-04T06:02:07;95378.28;;;25.34;100.00
8075;BME280;4080;42.676;23.372;2022-08-04T06:04:37;95378.44;;;25.42;100.00
8075;BME280;4080;42.676;23.372;2022-08-04T06:07:06;95377.31;;;25.62;100.00
8075;BME280;4080;42.676;23.372;2022-08-04T06:09:35;95369.75;;;25.87;100.00
8075;BME280;4080;42.676;23.372;2022-08-04T06:12:06;95344.56;;;25.83;100.00
8075;BME280;4080;42.676;23.372;2022-08-04T06:14:39;95374.81;;;26.30;100.00
8075;BME280;4080;42.676;23.372;2022-08-04T06:17:08;95370.16;;;26.50;100.00
8075;BME280;4080;42.676;23.372;2022-08-04T06:19:38;95365.13;;;26.49;100.00
8075;BME280;4080;42.676;23.372;2022-08-04T06:22:09;95373.41;;;26.37;100.00
8075;BME280;4080;42.676;23.372;2022-08-04T06:24:38;95369.59;;;25.99;100.00
8075;BME280;4080;42.676;23.372;2022-08-04T06:27:07;95335.63;;;25.79;100.00
8075;BME280;4080;42.676;23.372;2022-08-04T06:29:35;95378.63;;;26.07;100.00
8075;BME280;4080;42.676;23.372;2022-08-04T06:32:06;95377.06;;;26.06;100.00
8075;BME280;4080;42.676;23.372;2022-08-04T06:34:50;95372.38;;;26.03;100.00
8075;BME280;4080;42.676;23.372;2022-08-04T06:37:20;95369.53;;;25.95;100.00
8075;BME280;4080;42.676;23.372;2022-08-04T06:39:47;95366.47;;;25.97;100.00
8075;BME280;4080;42.676;23.372;2022-08-04T06:42:15;95342.28;;;25.85;100.00
8075;BME280;4080;42.676;23.372;2022-08-04T06:44:43;95357.78;;;25.88;100.00
8075;BME280;4080;42.676;23.372;2022-08-04T06:47:10;95375.72;;;25.96;100.00
8075;BME280;4080;42.676;23.372;2022-08-04T06:49:38;95382.47;;;25.86;100.00
8075;BME280;4080;42.676;23.372;2022-08-04T06:52:06;95381.31;;;25.68;100.00
8075;BME280;4080;42.676;23.372;2022-08-04T06:54:34;95379.50;;;25.56;100.00
8075;BME280;4080;42.676;23.372;2022-08-04T06:57:01;95380.94;;;25.50;100.00
8075;BME280;4080;42.676;23.372;2022-08-04T06:59:29;95364.16;;;25.41;100.00
8075;BME280;4080;42.676;23.372;2022-08-04T07:01:56;95373.25;;;25.52;100.00
8075;BME280;4080;42.676;23.372;2022-08-04T07:04:24;95379.22;;;25.61;100.00
8075;BME280;4080;42.676;23.372;2022-08-04T07:06:51;95380.72;;;25.75;100.00
8075;BME280;4080;42.676;23.372;2022-08-04T07:09:18;95388.81;;;25.75;100.00
8075;BME280;4080;42.676;23.372;2022-08-04T07:11:48;95379.16;;;25.74;100.00
8075;BME280;4080;42.676;23.372;2022-08-04T07:14:16;95362.94;;;25.74;100.00
8075;BME280;4080;42.676;23.372;2022-08-04T07:16:43;95373.53;;;26.24;100.00
8075;BME280;4080;42.676;23.372;2022-08-04T07:19:11;95382.44;;;26.67;100.00
8075;BME280;4080;42.676;23.372;2022-08-04T07:21:38;95370.22;;;27.00;100.00
8075;BME280;4080;42.676;23.372;2022-08-04T07:24:05;95367.47;;;27.52;100.00
8075;BME280;4080;42.676;23.372;2022-08-04T07:26:32;95369.53;;;27.89;100.00
8075;BME280;4080;42.676;23.372;2022-08-04T07:29:01;95369.63;;;27.96;100.00
8075;BME280;4080;42.676;23.372;2022-08-04T07:31:28;95363.38;;;27.92;100.00
8075;BME280;4080;42.676;23.372;2022-08-04T07:33:56;95360.78;;;27.69;100.00
8075;BME280;4080;42.676;23.372;2022-08-04T07:36:23;95363.03;;;27.97;100.00
8075;BME280;4080;42.676;23.372;2022-08-04T07:38:50;95374.50;;;28.17;99.94
8075;BME280;4080;42.676;23.372;2022-08-04T07:41:20;95357.53;;;27.90;99.87
8075;BME280;4080;42.676;23.372;2022-08-04T07:43:48;95370.00;;;27.65;99.68
8075;BME280;4080;42.676;23.372;2022-08-04T07:46:16;95363.50;;;27.43;100.00
8075;BME280;4080;42.676;23.372;2022-08-04T07:48:44;95367.41;;;27.45;100.00
8075;BME280;4080;42.676;23.372;2022-08-04T07:51:11;95365.66;;;27.60;100.00
8075;BME280;4080;42.676;23.372;2022-08-04T07:53:38;95362.50;;;27.84;100.00
8075;BME280;4080;42.676;23.372;2022-08-04T07:56:06;95363.84;;;28.01;100.00
8075;BME280;4080;42.676;23.372;2022-08-04T07:58:33;95367.44;;;28.12;100.00
8075;BME280;4080;42.676;23.372;2022-08-04T08:00:59;95357.72;;;28.08;98.59
8075;BME280;4080;42.676;23.372;2022-08-04T08:03:28;95360.69;;;27.96;99.36
8075;BME280;4080;42.676;23.372;2022-08-04T08:05:55;95356.88;;;28.00;100.00
8075;BME280;4080;42.676;23.372;2022-08-04T08:08:22;95354.56;;;28.02;100.00
8075;BME280;4080;42.676;23.372;2022-08-04T08:10:49;95344.50;;;28.03;99.80
8075;BME280;4080;42.676;23.372;2022-08-04T08:13:16;95365.81;;;28.04;98.36
8075;BME280;4080;42.676;23.372;2022-08-04T08:15:44;95356.47;;;27.98;100.00
8075;BME280;4080;42.676;23.372;2022-08-04T08:18:11;95352.81;;;28.17;99.55
8075;BME280;4080;42.676;23.372;2022-08-04T08:20:43;95351.13;;;28.42;100.00
8075;BME280;4080;42.676;23.372;2022-08-04T08:23:11;95357.16;;;29.14;96.74
8075;BME280;4080;42.676;23.372;2022-08-04T08:25:38;95368.03;;;29.79;94.75
8075;BME280;4080;42.676;23.372;2022-08-04T08:28:05;95360.38;;;30.06;89.67
8075;BME280;4080;42.676;23.372;2022-08-04T08:30:32;95367.41;;;30.21;90.23
8075;BME280;4080;42.676;23.372;2022-08-04T08:33:02;95367.03;;;30.30;86.23
8075;BME280;4080;42.676;23.372;2022-08-04T08:35:34;95358.50;;;30.35;83.86
8075;BME280;4080;42.676;23.372;2022-08-04T08:38:05;95362.81;;;30.54;83.91
8075;BME280;4080;42.676;23.372;2022-08-04T08:40:35;95363.25;;;30.70;81.75
8075;BME280;4080;42.676;23.372;2022-08-04T08:43:30;95376.06;;;30.91;81.94
8075;BME280;4080;42.676;23.372;2022-08-04T08:49:44;95374.47;;;30.37;83.65
8075;BME280;4080;42.676;23.372;2022-08-04T08:52:29;95353.47;;;30.41;83.74
8075;BME280;4080;42.676;23.372;2022-08-04T08:55:25;95359.75;;;30.66;86.42
8075;BME280;4080;42.676;23.372;2022-08-04T08:58:06;95359.72;;;31.05;83.29
8075;BME280;4080;42.676;23.372;2022-08-04T09:00:46;95355.84;;;31.17;80.14
8075;BME280;4080;42.676;23.372;2022-08-04T09:03:37;95353.53;;;31.23;81.34
8075;BME280;4080;42.676;23.372;2022-08-04T09:06:27;95355.03;;;31.38;82.40
8075;BME280;4080;42.676;23.372;2022-08-04T09:09:13;95353.00;;;31.67;80.37
8075;BME280;4080;42.676;23.372;2022-08-04T09:11:56;95352.53;;;31.93;73.54
8075;BME280;4080;42.676;23.372;2022-08-04T09:14:31;95352.09;;;32.05;71.91
8075;BME280;4080;42.676;23.372;2022-08-04T09:17:02;95357.16;;;32.07;69.72
8075;BME280;4080;42.676;23.372;2022-08-04T09:19:35;95334.66;;;31.78;68.81
8075;BME280;4080;42.676;23.372;2022-08-04T09:22:10;95327.69;;;31.73;72.82
8075;BME280;4080;42.676;23.372;2022-08-04T09:24:47;95339.16;;;32.13;73.28
8075;BME280;4080;42.676;23.372;2022-08-04T09:27:19;95333.69;;;32.27;71.17
8075;BME280;4080;42.676;23.372;2022-08-04T09:29:51;95338.25;;;32.41;72.36
8075;BME280;4080;42.676;23.372;2022-08-04T09:32:29;95338.34;;;32.23;69.93
8075;BME280;4080;42.676;23.372;2022-08-04T09:35:05;95333.91;;;31.77;71.63
8075;BME280;4080;42.676;23.372;2022-08-04T09:37:41;95295.91;;;31.03;67.64
8075;BME280;4080;42.676;23.372;2022-08-04T09:40:17;95330.56;;;31.24;73.75
8075;BME280;4080;42.676;23.372;2022-08-04T09:42:53;95333.59;;;31.43;71.86
8075;BME280;4080;42.676;23.372;2022-08-04T09:45:30;95337.03;;;31.76;69.63
8075;BME280;4080;42.676;23.372;2022-08-04T09:48:05;95329.91;;;32.00;67.76
8075;BME280;4080;42.676;23.372;2022-08-04T09:50:37;95304.09;;;32.11;64.90
8075;BME280;4080;42.676;23.372;2022-08-04T09:53:25;95335.13;;;32.46;65.89
8075;BME280;4080;42.676;23.372;2022-08-04T09:56:02;95328.63;;;32.22;64.63
8075;BME280;4080;42.676;23.372;2022-08-04T09:58:45;95335.19;;;32.35;63.98
8075;BME280;4080;42.676;23.372;2022-08-04T10:01:17;95323.53;;;32.28;63.69
8075;BME280;4080;42.676;23.372;2022-08-04T10:03:51;95329.44;;;32.12;62.16
8075;BME280;4080;42.676;23.372;2022-08-04T10:06:34;95322.88;;;31.99;61.33
8075;BME280;4080;42.676;23.372;2022-08-04T10:09:13;95321.78;;;31.82;62.63
8075;BME280;4080;42.676;23.372;2022-08-04T10:11:59;95309.56;;;32.15;63.50
8075;BME280;4080;42.676;23.372;2022-08-04T10:14:39;95316.56;;;32.71;61.67
8075;BME280;4080;42.676;23.372;2022-08-04T10:17:25;95318.69;;;33.01;61.38
8075;BME280;4080;42.676;23.372;2022-08-04T10:20:06;95325.16;;;33.18;56.11
8075;BME280;4080;42.676;23.372;2022-08-04T10:22:36;95316.78;;;33.40;55.88
8075;BME280;4080;42.676;23.372;2022-08-04T10:25:28;95315.97;;;33.43;55.23
8075;BME280;4080;42.676;23.372;2022-08-04T10:27:58;95316.03;;;33.36;56.74
8075;BME280;4080;42.676;23.372;2022-08-04T10:30:32;95311.16;;;33.13;56.97
8075;BME280;4080;42.676;23.372;2022-08-04T10:33:08;95315.25;;;32.94;58.22
8075;BME280;4080;42.676;23.372;2022-08-04T10:35:49;95288.28;;;32.51;58.45
8075;BME280;4080;42.676;23.372;2022-08-04T10:38:22;95304.50;;;32.69;58.45
8075;BME280;4080;42.676;23.372;2022-08-04T10:40:57;95306.69;;;32.92;57.96
8075;BME280;4080;42.676;23.372;2022-08-04T10:43:36;95304.81;;;33.23;55.13
8075;BME280;4080;42.676;23.372;2022-08-04T10:46:10;95305.31;;;33.52;52.74
8075;BME280;4080;42.676;23.372;2022-08-04T10:48:43;95302.28;;;33.77;53.91
8075;BME280;4080;42.676;23.372;2022-08-04T10:51:22;95300.56;;;33.90;51.97
8075;BME280;4080;42.676;23.372;2022-08-04T10:53:59;95303.09;;;33.74;49.73
8075;BME280;4080;42.676;23.372;2022-08-04T10:56:31;95299.06;;;33.51;52.65
8075;BME280;4080;42.676;23.372;2022-08-04T10:59:03;95288.38;;;33.60;52.35
8075;BME280;4080;42.676;23.372;2022-08-04T11:01:36;95296.56;;;33.64;48.02
8075;BME280;4080;42.676;23.372;2022-08-04T11:04:09;95291.84;;;33.30;45.79
8075;BME280;4080;42.676;23.372;2022-08-04T11:06:38;95276.94;;;32.97;48.16
8075;BME280;4080;42.676;23.372;2022-08-04T11:09:06;95283.97;;;32.98;50.56
8075;BME280;4080;42.676;23.372;2022-08-04T11:11:37;95285.25;;;33.24;50.66
8075;BME280;4080;42.676;23.372;2022-08-04T11:14:08;95286.38;;;33.30;50.96
8075;BME280;4080;42.676;23.372;2022-08-04T11:16:40;95251.94;;;33.40;48.36
8075;BME280;4080;42.676;23.372;2022-08-04T11:19:19;95285.59;;;33.68;45.09
8075;BME280;4080;42.676;23.372;2022-08-04T11:21:53;95243.00;;;33.32;46.08
8075;BME280;4080;42.676;23.372;2022-08-04T11:24:25;95279.50;;;33.53;44.03
8075;BME280;4080;42.676;23.372;2022-08-04T11:26:57;95273.72;;;33.47;44.62
8075;BME280;4080;42.676;23.372;2022-08-04T11:29:29;95276.66;;;33.60;47.06
8075;BME280;4080;42.676;23.372;2022-08-04T11:32:01;95273.59;;;33.88;47.47
8075;BME280;4080;42.676;23.372;2022-08-04T11:34:29;95275.56;;;33.88;43.96
8075;BME280;4080;42.676;23.372;2022-08-04T11:37:03;95272.91;;;33.81;41.71
8075;BME280;4080;42.676;23.372;2022-08-04T11:39:34;95277.38;;;33.68;41.22
8075;BME280;4080;42.676;23.372;2022-08-04T11:42:06;95260.56;;;33.35;41.61
8075;BME280;4080;42.676;23.372;2022-08-04T11:44:42;95267.88;;;33.08;42.06
8075;BME280;4080;42.676;23.372;2022-08-04T11:47:21;95261.53;;;32.80;45.62
8075;BME280;4080;42.676;23.372;2022-08-04T11:49:55;95262.53;;;32.52;45.57
8075;BME280;4080;42.676;23.372;2022-08-04T11:52:26;95249.34;;;32.40;47.03
8075;BME280;4080;42.676;23.372;2022-08-04T11:54:57;95266.22;;;32.76;46.85
8075;BME280;4080;42.676;23.372;2022-08-04T11:57:25;95258.31;;;32.89;49.01
8075;BME280;4080;42.676;23.372;2022-08-04T11:59:54;95265.47;;;33.13;49.12
8075;BME280;4080;42.676;23.372;2022-08-04T12:05:27;95261.38;;;32.94;42.68
8075;BME280;4080;42.676;23.372;2022-08-04T12:08:02;95163.28;;;32.25;42.28
8075;BME280;4080;42.676;23.372;2022-08-04T12:10:44;95255.97;;;32.87;42.86
8075;BME280;4080;42.676;23.372;2022-08-04T12:13:21;95261.66;;;33.03;43.14
8075;BME280;4080;42.676;23.372;2022-08-04T12:15:56;95258.34;;;32.85;43.81
8075;BME280;4080;42.676;23.372;2022-08-04T12:18:31;95266.66;;;32.67;43.90
8075;BME280;4080;42.676;23.372;2022-08-04T12:21:05;95262.47;;;32.56;43.29
8075;BME280;4080;42.676;23.372;2022-08-04T12:23:37;95266.09;;;32.46;42.92
8075;BME280;4080;42.676;23.372;2022-08-04T12:26:06;95257.19;;;32.34;44.28
8075;BME280;4080;42.676;23.372;2022-08-04T12:28:35;95248.75;;;32.11;45.11
8075;BME280;4080;42.676;23.372;2022-08-04T12:31:10;95246.50;;;31.99;46.62
8075;BME280;4080;42.676;23.372;2022-08-04T12:33:42;95253.97;;;31.91;46.87
8075;BME280;4080;42.676;23.372;2022-08-04T12:36:19;95256.34;;;31.78;48.08
8075;BME280;4080;42.676;23.372;2022-08-04T12:38:58;95251.72;;;31.68;49.39
8075;BME280;4080;42.676;23.372;2022-08-04T12:41:31;95250.97;;;31.61;49.17
8075;BME280;4080;42.676;23.372;2022-08-04T12:44:05;95172.91;;;31.08;52.09
8075;BME280;4080;42.676;23.372;2022-08-04T12:46:33;95240.50;;;31.56;51.93
8075;BME280;4080;42.676;23.372;2022-08-04T12:49:03;95239.31;;;31.49;50.77
8075;BME280;4080;42.676;23.372;2022-08-04T12:51:39;95195.47;;;31.19;51.27
8075;BME280;4080;42.676;23.372;2022-08-04T12:54:07;95215.69;;;31.29;51.01
8075;BME280;4080;42.676;23.372;2022-08-04T12:56:35;95228.09;;;31.37;49.68
8075;BME280;4080;42.676;23.372;2022-08-04T12:59:06;95227.69;;;31.42;50.05
8075;BME280;4080;42.676;23.372;2022-08-04T13:01:34;95218.38;;;31.36;49.53
8075;BME280;4080;42.676;23.372;2022-08-04T13:04:09;95220.31;;;31.39;50.51
8075;BME280;4080;42.676;23.372;2022-08-04T13:06:40;95226.50;;;31.43;50.01
8075;BME280;4080;42.676;23.372;2022-08-04T13:09:09;95217.97;;;31.37;51.26
8075;BME280;4080;42.676;23.372;2022-08-04T13:11:39;95109.22;;;30.59;49.77
8075;BME280;4080;42.676;23.372;2022-08-04T13:14:07;95224.25;;;31.27;50.03
8075;BME280;4080;42.676;23.372;2022-08-04T13:16:36;95220.38;;;31.17;50.56
8075;BME280;4080;42.676;23.372;2022-08-04T13:19:05;95222.69;;;31.30;51.29
8075;BME280;4080;42.676;23.372;2022-08-04T13:21:34;95226.47;;;31.54;52.60
8075;BME280;4080;42.676;23.372;2022-08-04T13:24:10;95222.88;;;31.74;51.08
8075;BME280;4080;42.676;23.372;2022-08-04T13:26:47;95216.97;;;31.87;49.85
8075;BME280;4080;42.676;23.372;2022-08-04T13:29:16;95203.31;;;31.90;48.96
8075;BME280;4080;42.676;23.372;2022-08-04T13:31:44;95214.03;;;32.15;50.53
8075;BME280;4080;42.676;23.372;2022-08-04T13:34:14;95214.25;;;32.38;49.55
8075;BME280;4080;42.676;23.372;2022-08-04T13:36:42;95211.81;;;32.51;48.23
8075;BME280;4080;42.676;23.372;2022-08-04T13:39:16;95190.75;;;32.52;46.54
8075;BME280;4080;42.676;23.372;2022-08-04T13:41:46;95185.72;;;32.43;45.84
8075;BME280;4080;42.676;23.372;2022-08-04T13:44:18;95188.06;;;32.48;43.69
8075;BME280;4080;42.676;23.372;2022-08-04T13:46:48;95180.91;;;32.13;46.41
8075;BME280;4080;42.676;23.372;2022-08-04T13:49:17;95201.88;;;32.23;47.37
8075;BME280;4080;42.676;23.372;2022-08-04T13:51:48;95193.31;;;32.21;48.20
8075;BME280;4080;42.676;23.372;2022-08-04T13:54:18;95191.75;;;32.27;46.96
8075;BME280;4080;42.676;23.372;2022-08-04T13:56:47;95179.72;;;32.14;48.02
8075;BME280;4080;42.676;23.372;2022-08-04T13:59:16;95158.59;;;31.73;47.84
8075;BME280;4080;42.676;23.372;2022-08-04T14:01:46;95171.78;;;31.78;49.07
8075;BME280;4080;42.676;23.372;2022-08-04T14:04:23;95183.47;;;31.83;50.05
8075;BME280;4080;42.676;23.372;2022-08-04T14:06:53;95146.91;;;31.69;49.54
8075;BME280;4080;42.676;23.372;2022-08-04T14:09:23;95173.72;;;31.85;48.44
8075;BME280;4080;42.676;23.372;2022-08-04T14:11:53;95177.94;;;31.93;47.82
8075;BME280;4080;42.676;23.372;2022-08-04T14:14:24;95180.28;;;31.95;47.79
8075;BME280;4080;42.676;23.372;2022-08-04T14:17:00;95177.88;;;32.00;47.97
8075;BME280;4080;42.676;23.372;2022-08-04T14:19:31;95174.44;;;31.93;46.78
8075;BME280;4080;42.676;23.372;2022-08-04T14:22:26;95163.25;;;31.76;47.44
8075;BME280;4080;42.676;23.372;2022-08-04T14:24:56;95159.69;;;31.83;47.85
8075;BME280;4080;42.676;23.372;2022-08-04T14:27:24;95165.53;;;31.81;48.64
8075;BME280;4080;42.676;23.372;2022-08-04T14:29:51;95169.44;;;31.84;48.61
8075;BME280;4080;42.676;23.372;2022-08-04T14:32:18;95162.81;;;31.81;49.26